In Rescue
 
Open Full Screen Window  High Contrast Mode
Wind Gusting 00 knots
05
July 13, 2020 10:00 PM CDT
Weather Information
Wind Direction
  160 °
Wind Speed
  05 kt (6 mph)
Wind Gust
  00 kt (0 mph)
Altimeter
29.73 in
Visibility
10 SM
Temperature
19° C
66° F
Dewpoint
16° C
61° F
Humidity
83%
1hr Rain Fall
00.00 in.
24hr Rain Fall
00.00 in.
Sky Condition
Scattered @ 11,000 ft
Scattered @ 6,500 ft
VFR

METAR KCDD 140300Z AUTO 16005KT 10SM SCT065 SCT110 19/16 A2973 RMK AO2 LTG DSNT SW AND W

FAA Disclaimer: The data displayed is for advisory purposes only and is not to be used for flight planning or operations.